createdAt,value
2023-03-29T00:00:02.633Z,0
2023-03-29T00:05:01.112Z,0
2023-03-29T00:10:01.308Z,0
2023-03-29T00:15:01.135Z,0
2023-03-29T00:20:08.811Z,0
2023-03-29T00:25:01.343Z,0
2023-03-29T00:30:01.096Z,0
2023-03-29T00:35:01.176Z,0
2023-03-29T00:40:01.293Z,0
2023-03-29T00:45:02.177Z,0
2023-03-29T00:50:01.194Z,0
2023-03-29T00:55:01.164Z,0
2023-03-29T01:00:01.514Z,0
2023-03-29T01:05:01.217Z,0
2023-03-29T01:10:01.226Z,0
2023-03-29T01:15:01.255Z,0
2023-03-29T01:20:01.179Z,0
2023-03-29T01:25:01.246Z,0
2023-03-29T01:30:01.192Z,0
2023-03-29T01:35:01.122Z,0
2023-03-29T01:40:01.240Z,0
2023-03-29T01:45:01.121Z,0
2023-03-29T01:50:01.117Z,0
2023-03-29T01:55:02.349Z,0
2023-03-29T02:00:01.133Z,0
2023-03-29T02:05:01.086Z,0
2023-03-29T02:10:01.178Z,0
2023-03-29T02:15:01.199Z,0
2023-03-29T02:20:01.264Z,0
2023-03-29T02:25:01.125Z,0
2023-03-29T02:30:01.133Z,0
2023-03-29T02:35:01.242Z,0
2023-03-29T02:40:01.166Z,0
2023-03-29T02:45:01.133Z,0
2023-03-29T02:50:01.293Z,0
2023-03-29T02:55:01.152Z,0
2023-03-29T03:00:02.178Z,0
2023-03-29T03:05:03.522Z,0
2023-03-29T03:10:01.180Z,0
2023-03-29T03:15:01.137Z,0
2023-03-29T03:20:01.214Z,0
2023-03-29T03:25:01.147Z,0
2023-03-29T03:30:02.331Z,0
2023-03-29T03:35:01.174Z,0
2023-03-29T03:40:01.171Z,0
2023-03-29T03:45:01.224Z,0
2023-03-29T03:50:01.175Z,0
2023-03-29T03:55:01.113Z,0
2023-03-29T04:00:02.426Z,0
2023-03-29T04:05:01.122Z,0
2023-03-29T04:10:01.224Z,0
2023-03-29T04:15:01.188Z,0
2023-03-29T04:20:01.818Z,0
2023-03-29T04:25:01.282Z,0
2023-03-29T04:30:01.209Z,0
2023-03-29T04:35:01.228Z,0
2023-03-29T04:40:01.290Z,0
2023-03-29T04:45:01.216Z,0
2023-03-29T04:50:01.204Z,0
2023-03-29T04:55:01.232Z,0
2023-03-29T05:00:01.211Z,0
2023-03-29T05:05:01.160Z,0
2023-03-29T05:10:01.217Z,0
2023-03-29T05:15:01.180Z,265
2023-03-29T05:20:01.242Z,0
2023-03-29T05:25:01.215Z,0
2023-03-29T05:30:01.269Z,266
2023-03-29T05:35:01.205Z,268
2023-03-29T05:40:05.399Z,269
2023-03-29T05:45:01.152Z,269
2023-03-29T05:50:01.237Z,269
2023-03-29T05:55:01.251Z,272
2023-03-29T06:00:01.231Z,275
2023-03-29T06:05:01.295Z,277
2023-03-29T06:10:01.243Z,273
2023-03-29T06:15:01.181Z,273
2023-03-29T06:20:01.192Z,273
2023-03-29T06:25:01.254Z,273
2023-03-29T06:30:01.235Z,278
2023-03-29T06:35:01.310Z,279
2023-03-29T06:40:01.304Z,288
2023-03-29T06:45:01.377Z,292
2023-03-29T06:50:01.226Z,287
2023-03-29T06:55:01.267Z,289
2023-03-29T07:00:01.452Z,289
2023-03-29T07:05:01.267Z,288
2023-03-29T07:10:01.276Z,282
2023-03-29T07:15:01.236Z,283
2023-03-29T07:20:01.982Z,285
2023-03-29T07:25:01.329Z,287
2023-03-29T07:30:01.143Z,296
2023-03-29T07:35:01.171Z,297
2023-03-29T07:40:01.257Z,300
2023-03-29T07:45:01.221Z,314
2023-03-29T07:50:01.395Z,325
2023-03-29T07:55:01.237Z,332
2023-03-29T08:00:01.195Z,331
2023-03-29T08:05:01.206Z,341
2023-03-29T08:10:01.333Z,366
2023-03-29T08:15:01.247Z,375
2023-03-29T08:20:01.265Z,398
2023-03-29T08:25:01.338Z,509
2023-03-29T08:30:01.381Z,479
2023-03-29T08:35:01.233Z,419
2023-03-29T08:40:01.305Z,492
2023-03-29T08:45:01.272Z,432
2023-03-29T08:50:01.648Z,770
2023-03-29T08:55:01.218Z,862
2023-03-29T09:00:01.257Z,841
2023-03-29T09:05:01.183Z,684
2023-03-29T09:10:01.252Z,809
2023-03-29T09:15:01.275Z,462
2023-03-29T09:20:01.234Z,412
2023-03-29T09:25:01.246Z,442
2023-03-29T09:30:01.229Z,519
2023-03-29T09:35:01.219Z,510
2023-03-29T09:40:05.188Z,421
2023-03-29T09:45:01.193Z,417
2023-03-29T09:50:01.305Z,416
2023-03-29T09:55:01.367Z,380
2023-03-29T10:00:01.281Z,391
2023-03-29T10:05:01.354Z,382
2023-03-29T10:10:01.379Z,556
2023-03-29T10:15:01.423Z,580
2023-03-29T10:20:04.585Z,396
2023-03-29T10:25:01.388Z,396
2023-03-29T10:30:01.312Z,358
2023-03-29T10:35:01.259Z,346
2023-03-29T10:40:01.269Z,341
2023-03-29T10:45:01.199Z,380
2023-03-29T10:50:01.204Z,474
2023-03-29T10:55:02.336Z,432
2023-03-29T11:00:01.475Z,462
2023-03-29T11:05:01.286Z,421
2023-03-29T11:10:01.316Z,461
2023-03-29T11:15:01.319Z,498
2023-03-29T11:20:05.240Z,500
2023-03-29T11:25:01.344Z,423
2023-03-29T11:30:01.347Z,443
2023-03-29T11:35:01.349Z,397
2023-03-29T11:40:01.398Z,399
2023-03-29T11:45:02.129Z,390
2023-03-29T11:50:01.369Z,419
2023-03-29T11:55:03.437Z,383
2023-03-29T12:00:01.188Z,384
2023-03-29T12:05:01.248Z,368
2023-03-29T12:10:01.270Z,379
2023-03-29T12:15:01.588Z,347
2023-03-29T12:20:01.258Z,410
2023-03-29T12:25:01.227Z,375
2023-03-29T12:30:01.356Z,349
2023-03-29T12:35:01.495Z,351
2023-03-29T12:40:01.756Z,369
2023-03-29T12:45:01.317Z,320
2023-03-29T12:50:01.364Z,339
2023-03-29T12:55:01.585Z,357
2023-03-29T13:00:01.292Z,351
2023-03-29T13:05:01.366Z,392
2023-03-29T13:10:01.371Z,380
2023-03-29T13:15:01.256Z,368
2023-03-29T13:20:01.338Z,358
2023-03-29T13:25:01.310Z,364
2023-03-29T13:30:01.307Z,355
2023-03-29T13:35:01.295Z,350
2023-03-29T13:40:01.368Z,361
2023-03-29T13:45:01.391Z,348
2023-03-29T13:50:01.405Z,356
2023-03-29T13:55:01.376Z,348
2023-03-29T14:00:02.416Z,327
2023-03-29T14:05:01.417Z,336
2023-03-29T14:10:01.411Z,321
2023-03-29T14:15:02.878Z,343
2023-03-29T14:20:01.362Z,323
2023-03-29T14:35:01.482Z,303
2023-03-29T14:40:01.357Z,326
2023-03-29T14:45:01.337Z,308
2023-03-29T14:50:01.448Z,320
2023-03-29T14:55:01.299Z,312
2023-03-29T15:06:37.617Z,316
2023-03-29T15:10:05.400Z,303
2023-03-29T15:15:05.585Z,304
2023-03-29T15:20:05.418Z,302
2023-03-29T15:25:05.355Z,302
2023-03-29T15:30:05.398Z,289
2023-03-29T15:35:05.522Z,282
2023-03-29T15:40:05.536Z,296
2023-03-29T15:45:05.380Z,300
2023-03-29T15:50:05.565Z,298
2023-03-29T15:55:05.575Z,290
2023-03-29T16:00:05.447Z,288
2023-03-29T16:05:05.448Z,286
2023-03-29T16:10:05.325Z,287
2023-03-29T16:15:05.313Z,279
2023-03-29T16:20:05.384Z,277
2023-03-29T16:25:05.435Z,276
2023-03-29T16:30:05.337Z,278
2023-03-29T16:35:05.439Z,277
2023-03-29T16:40:05.496Z,276
2023-03-29T16:45:05.346Z,276
2023-03-29T16:50:05.372Z,275
2023-03-29T16:55:05.523Z,272
2023-03-29T17:00:05.400Z,267
2023-03-29T17:15:06.422Z,265
2023-03-29T17:20:05.563Z,0
2023-03-29T17:25:05.524Z,0
2023-03-29T17:30:05.544Z,0
2023-03-29T17:35:05.549Z,0
2023-03-29T17:50:05.515Z,0
2023-03-29T17:55:05.559Z,0
2023-03-29T18:05:22.756Z,0
2023-03-29T18:20:12.541Z,0
2023-03-29T18:30:12.413Z,0
2023-03-29T18:40:12.458Z,0
2023-03-29T18:45:12.378Z,0
2023-03-29T18:50:12.455Z,0
2023-03-29T18:55:12.448Z,0
2023-03-29T19:00:12.368Z,0
2023-03-29T19:10:38.253Z,0
2023-03-29T19:15:33.736Z,0
2023-03-29T19:20:13.851Z,0
2023-03-29T19:40:29.495Z,0
2023-03-29T19:45:49.953Z,0
2023-03-29T19:50:29.452Z,0
2023-03-29T19:55:29.496Z,0
2023-03-29T20:00:29.630Z,0
2023-03-29T20:05:29.548Z,0
2023-03-29T20:16:37.918Z,0
2023-03-29T20:20:33.475Z,0
2023-03-29T20:25:29.616Z,0
2023-03-29T20:30:30.624Z,0
2023-03-29T20:35:29.636Z,0
2023-03-29T20:40:30.575Z,0
2023-03-29T20:45:39.980Z,0
2023-03-29T20:50:31.338Z,0
2023-03-29T20:55:29.569Z,0
2023-03-29T21:00:29.581Z,0
2023-03-29T21:05:29.781Z,0
2023-03-29T21:10:29.590Z,0
2023-03-29T21:15:29.448Z,0
2023-03-29T21:20:29.492Z,0
2023-03-29T21:25:29.411Z,0
2023-03-29T21:30:32.421Z,0
2023-03-29T21:35:29.471Z,0
2023-03-29T21:40:29.410Z,0
2023-03-29T21:45:29.383Z,0
2023-03-29T21:50:30.844Z,0
2023-03-29T21:55:29.534Z,0
2023-03-29T22:00:29.404Z,0
2023-03-29T22:05:29.487Z,0
2023-03-29T22:10:29.534Z,0
2023-03-29T22:15:29.492Z,0
2023-03-29T22:20:29.474Z,0
2023-03-29T22:25:29.525Z,0
2023-03-29T22:30:29.412Z,0
2023-03-29T22:35:29.627Z,0
2023-03-29T22:40:29.449Z,0
2023-03-29T22:45:29.441Z,0
2023-03-29T22:50:29.511Z,0
2023-03-29T22:55:29.476Z,0
2023-03-29T23:00:29.440Z,0
2023-03-29T23:05:29.569Z,0
2023-03-29T23:10:29.436Z,0
2023-03-29T23:15:30.703Z,0
2023-03-29T23:20:29.519Z,0
2023-03-29T23:25:29.520Z,0
2023-03-29T23:30:29.569Z,0
2023-03-29T23:35:29.464Z,0
2023-03-29T23:40:29.412Z,0
2023-03-29T23:45:29.438Z,0
2023-03-29T23:50:29.468Z,0
2023-03-29T23:55:29.439Z,0
